Time;durP1;ratioP1;P1;durP2;ratioP2;P2;SDS_P1;SDS_P2;PMS_P1;PMS_P2;Temp;Humidity;BMP_temperature;BMP_pressure;BME280_temperature;BME280_humidity;BME280_pressure;Samples;Min_cycle;Max_cycle;Signal;HPM_P1;HPM_P2
2022/06/05 00:00:22;;;;;;;5.20;4.70;;;;;;;;;;4967806;28;20268;-27
2022/06/05 00:05:22;;;;;;;4.70;4.40;;;;;;;;;;4982187;28;20306;-26
2022/06/05 00:07:52;;;;;;;5.03;4.53;;;;;;;;;;4970585;28;20239;-29
2022/06/05 00:10:21;;;;;;;4.93;4.50;;;;;;;;;;4969446;28;20207;-28
2022/06/05 00:12:53;;;;;;;5.20;4.70;;;;;;;;;;4963580;28;20222;-28
2022/06/05 00:15:21;;;;;;;5.03;4.50;;;;;;;;;;4971827;28;20214;-29
2022/06/05 00:17:48;;;;;;;5.63;4.80;;;;;;;;;;4968222;28;20212;-27
2022/06/05 00:20:15;;;;;;;4.50;4.13;;;;;;;;;;4957893;28;20298;-28
2022/06/05 00:22:44;;;;;;;5.90;4.90;;;;;;;;;;4969952;28;20238;-28
2022/06/05 00:25:11;;;;;;;4.60;4.20;;;;;;;;;;4969945;28;20246;-30
2022/06/05 00:27:42;;;;;;;5.57;4.53;;;;;;;;;;4965638;28;20233;-29
2022/06/05 00:30:12;;;;;;;4.80;4.40;;;;;;;;;;4957099;28;20204;-27
2022/06/05 00:32:41;;;;;;;5.83;5.10;;;;;;;;;;4967831;28;20215;-30
2022/06/05 00:35:08;;;;;;;5.13;4.63;;;;;;;;;;4964411;28;20213;-30
2022/06/05 00:37:40;;;;;;;5.23;4.83;;;;;;;;;;4955226;28;20287;-30
2022/06/05 00:40:22;;;;;;;5.30;4.80;;;;;;;;;;4956421;28;20218;-27
2022/06/05 00:42:50;;;;;;;6.63;4.70;;;;;;;;;;4955150;28;20219;-29
2022/06/05 00:45:19;;;;;;;5.27;4.70;;;;;;;;;;4957351;28;20208;-26
2022/06/05 00:47:47;;;;;;;5.00;4.60;;;;;;;;;;4965804;28;20239;-27
2022/06/05 00:50:16;;;;;;;7.63;4.80;;;;;;;;;;4970670;28;20284;-29
2022/06/05 00:52:47;;;;;;;6.97;5.40;;;;;;;;;;4953693;28;20217;-27
2022/06/05 00:55:16;;;;;;;5.73;5.13;;;;;;;;;;4955484;28;20229;-28
2022/06/05 00:57:43;;;;;;;5.50;4.97;;;;;;;;;;4969918;28;20231;-30
2022/06/05 01:00:13;;;;;;;5.20;4.70;;;;;;;;;;4957027;28;20212;-31
2022/06/05 01:02:41;;;;;;;7.30;5.50;;;;;;;;;;4966293;28;20222;-30
2022/06/05 01:05:09;;;;;;;7.93;4.97;;;;;;;;;;4969547;28;20211;-29
2022/06/05 01:07:36;;;;;;;6.33;5.17;;;;;;;;;;4953571;28;20224;-30
2022/06/05 01:10:04;;;;;;;5.57;5.07;;;;;;;;;;4953040;28;20219;-27
2022/06/05 01:12:37;;;;;;;5.83;5.33;;;;;;;;;;4968555;28;20218;-28
2022/06/05 01:15:10;;;;;;;6.50;5.40;;;;;;;;;;4959699;28;20210;-28
2022/06/05 01:17:41;;;;;;;5.67;5.17;;;;;;;;;;4965713;28;20231;-26
2022/06/05 01:20:12;;;;;;;5.53;5.07;;;;;;;;;;4957327;28;20200;-29
2022/06/05 01:22:59;;;;;;;4.97;4.47;;;;;;;;;;4955213;28;20215;-29
2022/06/05 01:25:53;;;;;;;7.87;4.97;;;;;;;;;;4959949;28;20208;-27
2022/06/05 01:28:22;;;;;;;5.60;5.10;;;;;;;;;;4958913;28;20233;-28
2022/06/05 01:30:51;;;;;;;5.47;4.97;;;;;;;;;;4954402;28;20211;-28
2022/06/05 01:33:22;;;;;;;6.40;5.20;;;;;;;;;;4969670;28;20306;-27
2022/06/05 01:35:53;;;;;;;6.30;5.40;;;;;;;;;;4962913;28;20225;-27
2022/06/05 01:38:23;;;;;;;5.60;5.10;;;;;;;;;;4970914;28;20219;-26
2022/06/05 01:40:52;;;;;;;5.50;5.00;;;;;;;;;;4965565;28;20215;-26
2022/06/05 01:43:21;;;;;;;6.30;5.70;;;;;;;;;;4969831;28;20211;-28
2022/06/05 01:45:51;;;;;;;8.73;5.30;;;;;;;;;;4967921;28;20349;-25
2022/06/05 01:48:20;;;;;;;5.83;5.33;;;;;;;;;;4967787;28;20294;-30
2022/06/05 01:50:49;;;;;;;6.20;5.60;;;;;;;;;;4960025;28;20203;-28
2022/06/05 01:53:18;;;;;;;5.97;5.37;;;;;;;;;;4951342;29;20216;-29
2022/06/05 01:55:49;;;;;;;5.90;5.40;;;;;;;;;;4958369;28;20232;-27
2022/06/05 01:58:18;;;;;;;5.67;5.17;;;;;;;;;;4962807;28;20215;-30
2022/06/05 02:00:48;;;;;;;5.67;5.13;;;;;;;;;;4969661;28;20228;-30
2022/06/05 02:03:19;;;;;;;6.20;5.63;;;;;;;;;;4970831;28;20303;-28
2022/06/05 02:05:48;;;;;;;5.73;5.23;;;;;;;;;;4972377;28;20231;-30
2022/06/05 02:08:19;;;;;;;6.40;5.70;;;;;;;;;;4955440;29;20230;-25
2022/06/05 02:10:49;;;;;;;6.13;5.07;;;;;;;;;;4955925;28;20221;-27
2022/06/05 02:13:16;;;;;;;5.27;4.87;;;;;;;;;;4972825;28;20201;-30
2022/06/05 02:15:43;;;;;;;5.17;4.67;;;;;;;;;;4969839;28;20227;-30
2022/06/05 02:18:12;;;;;;;5.07;4.67;;;;;;;;;;4973049;28;20207;-27
2022/06/05 02:20:41;;;;;;;5.07;4.67;;;;;;;;;;4966285;28;20242;-28
2022/06/05 02:23:12;;;;;;;5.50;5.00;;;;;;;;;;4974193;28;20218;-30
2022/06/05 02:25:41;;;;;;;7.20;4.77;;;;;;;;;;4971146;28;20214;-27
2022/06/05 02:28:08;;;;;;;5.47;4.97;;;;;;;;;;4960932;28;20208;-26
2022/06/05 02:30:40;;;;;;;5.93;5.33;;;;;;;;;;4960450;28;20206;-27
2022/06/05 02:33:12;;;;;;;6.53;5.20;;;;;;;;;;4971805;28;20208;-30
2022/06/05 02:35:44;;;;;;;5.33;4.90;;;;;;;;;;4973155;28;20217;-28
2022/06/05 02:38:18;;;;;;;5.90;5.30;;;;;;;;;;4974375;28;20228;-27
2022/06/05 02:40:49;;;;;;;5.10;4.70;;;;;;;;;;4970162;28;20207;-27
2022/06/05 02:43:18;;;;;;;6.23;4.97;;;;;;;;;;4971326;28;20210;-28
2022/06/05 02:45:51;;;;;;;5.23;4.73;;;;;;;;;;4969147;28;20222;-28
2022/06/05 02:48:24;;;;;;;5.73;5.23;;;;;;;;;;4971586;28;20203;-25
2022/06/05 02:50:56;;;;;;;5.00;4.60;;;;;;;;;;4963152;28;20266;-28
2022/06/05 02:53:23;;;;;;;5.47;4.90;;;;;;;;;;4955728;28;20244;-27
2022/06/05 02:55:50;;;;;;;5.30;4.80;;;;;;;;;;4965106;28;20226;-28
2022/06/05 02:58:17;;;;;;;5.23;4.73;;;;;;;;;;4960586;28;20235;-25
2022/06/05 03:03:27;;;;;;;6.57;5.03;;;;;;;;;;4972249;28;20220;-27
2022/06/05 03:03:31;;;;;;;5.37;4.90;;;;;;;;;;4972395;28;20306;-29
2022/06/05 03:06:03;;;;;;;5.60;5.07;;;;;;;;;;4962407;28;20229;-29
2022/06/05 03:08:30;;;;;;;5.20;4.70;;;;;;;;;;4954955;29;20215;-30
2022/06/05 03:10:57;;;;;;;7.33;5.50;;;;;;;;;;4960111;28;20282;-28
2022/06/05 03:13:24;;;;;;;6.20;5.60;;;;;;;;;;4971633;28;20218;-25
2022/06/05 03:15:51;;;;;;;5.03;4.63;;;;;;;;;;4971440;28;20227;-31
2022/06/05 03:18:18;;;;;;;6.13;4.93;;;;;;;;;;4972707;28;20206;-29
2022/06/05 03:20:45;;;;;;;5.27;4.87;;;;;;;;;;4965660;28;20219;-28
2022/06/05 03:23:14;;;;;;;5.73;4.70;;;;;;;;;;4974361;28;20218;-27
2022/06/05 03:25:42;;;;;;;5.03;4.53;;;;;;;;;;4971374;28;20241;-28
2022/06/05 03:28:10;;;;;;;4.63;4.30;;;;;;;;;;4962498;28;20231;-28
2022/06/05 03:30:38;;;;;;;4.90;4.23;;;;;;;;;;4953802;28;20596;-30
2022/06/05 03:33:06;;;;;;;5.47;4.90;;;;;;;;;;4972546;28;20206;-26
2022/06/05 03:35:36;;;;;;;5.47;5.07;;;;;;;;;;4973437;28;20215;-26
2022/06/05 03:38:04;;;;;;;5.40;5.00;;;;;;;;;;4974387;28;20210;-28
2022/06/05 03:40:33;;;;;;;5.60;5.10;;;;;;;;;;4970097;28;20208;-27
2022/06/05 03:43:00;;;;;;;5.77;5.33;;;;;;;;;;4963415;28;20207;-31
2022/06/05 03:45:28;;;;;;;5.93;5.10;;;;;;;;;;4972266;28;20211;-26
2022/06/05 03:47:55;;;;;;;5.93;5.43;;;;;;;;;;4970452;28;20221;-27
2022/06/05 03:50:22;;;;;;;5.80;5.20;;;;;;;;;;4957560;28;20203;-27
2022/06/05 03:52:49;;;;;;;5.83;5.27;;;;;;;;;;4971363;28;20210;-27
2022/06/05 03:55:18;;;;;;;5.60;5.10;;;;;;;;;;4969256;28;20207;-25
2022/06/05 03:57:46;;;;;;;5.10;4.70;;;;;;;;;;4969996;28;20229;-26
2022/06/05 04:00:15;;;;;;;5.93;5.00;;;;;;;;;;4966990;28;20206;-29
2022/06/05 04:02:42;;;;;;;5.37;4.93;;;;;;;;;;4968637;28;20213;-25
2022/06/05 04:05:10;;;;;;;5.30;4.80;;;;;;;;;;4971589;28;20233;-27
2022/06/05 04:07:37;;;;;;;5.13;4.73;;;;;;;;;;4955713;28;20234;-27
2022/06/05 04:10:05;;;;;;;5.00;4.60;;;;;;;;;;4956278;28;20214;-27
2022/06/05 04:12:32;;;;;;;5.77;4.97;;;;;;;;;;4971543;28;20198;-28
2022/06/05 04:15:02;;;;;;;5.37;4.30;;;;;;;;;;4972114;28;20211;-27
2022/06/05 04:17:29;;;;;;;5.57;4.73;;;;;;;;;;4969678;28;20277;-28
2022/06/05 04:19:56;;;;;;;5.83;5.00;;;;;;;;;;4968631;28;20213;-30
2022/06/05 04:22:23;;;;;;;7.60;5.37;;;;;;;;;;4974181;28;20206;-26
2022/06/05 04:24:50;;;;;;;5.37;4.83;;;;;;;;;;4973971;28;20214;-28
2022/06/05 04:27:17;;;;;;;5.83;5.33;;;;;;;;;;4965174;28;20231;-29
2022/06/05 04:29:44;;;;;;;5.10;4.80;;;;;;;;;;4961808;28;20214;-28
2022/06/05 04:32:13;;;;;;;5.20;4.80;;;;;;;;;;4964315;28;20206;-26
2022/06/05 04:34:40;;;;;;;5.87;5.30;;;;;;;;;;4963524;28;20217;-28
2022/06/05 04:37:07;;;;;;;5.40;4.90;;;;;;;;;;4960879;28;20235;-27
2022/06/05 04:39:35;;;;;;;4.83;4.33;;;;;;;;;;4953496;29;20208;-28
2022/06/05 04:42:02;;;;;;;5.13;4.73;;;;;;;;;;4963190;28;20217;-28
2022/06/05 04:44:29;;;;;;;4.60;4.30;;;;;;;;;;4965661;28;20227;-30
2022/06/05 04:46:56;;;;;;;5.60;5.10;;;;;;;;;;4962958;28;20322;-27
2022/06/05 04:49:25;;;;;;;5.70;5.17;;;;;;;;;;4965409;28;20214;-24
2022/06/05 04:51:52;;;;;;;5.07;4.53;;;;;;;;;;4973097;28;20214;-25
2022/06/05 04:54:20;;;;;;;5.10;4.60;;;;;;;;;;4971013;28;20206;-26
2022/06/05 04:56:47;;;;;;;5.63;4.90;;;;;;;;;;4965641;28;20227;-28
2022/06/05 04:59:14;;;;;;;5.00;4.57;;;;;;;;;;4973638;28;20213;-25
2022/06/05 05:01:42;;;;;;;5.33;4.70;;;;;;;;;;4971197;28;20286;-27
2022/06/05 05:04:09;;;;;;;5.57;4.93;;;;;;;;;;4973200;28;20213;-25
2022/06/05 05:06:39;;;;;;;5.93;5.30;;;;;;;;;;4965454;28;20236;-28
2022/06/05 05:09:06;;;;;;;5.30;4.90;;;;;;;;;;4971438;28;20302;-26
2022/06/05 05:11:34;;;;;;;6.20;5.00;;;;;;;;;;4964336;28;20211;-27
2022/06/05 05:14:01;;;;;;;7.47;4.47;;;;;;;;;;4972557;28;20302;-27
2022/06/05 05:16:29;;;;;;;6.00;5.20;;;;;;;;;;4972277;28;20241;-28
2022/06/05 05:18:56;;;;;;;5.80;5.30;;;;;;;;;;4967928;28;20214;-27
2022/06/05 05:21:25;;;;;;;6.13;5.63;;;;;;;;;;4954431;28;20215;-31
2022/06/05 05:23:53;;;;;;;5.63;5.13;;;;;;;;;;4964561;28;20239;-29
2022/06/05 05:26:21;;;;;;;4.73;4.33;;;;;;;;;;4968186;28;20333;-28
2022/06/05 05:28:49;;;;;;;4.90;4.60;;;;;;;;;;4970182;28;20226;-27
2022/06/05 05:31:18;;;;;;;5.43;5.03;;;;;;;;;;4969423;28;20210;-31
2022/06/05 05:33:49;;;;;;;5.20;4.77;;;;;;;;;;4969377;28;20215;-29
2022/06/05 05:36:18;;;;;;;5.30;4.90;;;;;;;;;;4968261;28;20223;-28
2022/06/05 05:42:04;;;;;;;5.73;5.23;;;;;;;;;;4958849;28;20213;-32
2022/06/05 05:44:19;;;;;;;5.47;4.97;;;;;;;;;;4980350;28;20213;-26
2022/06/05 05:46:49;;;;;;;7.33;5.87;;;;;;;;;;4975010;28;20225;-29
2022/06/05 05:49:17;;;;;;;8.50;6.53;;;;;;;;;;4977269;28;20203;-28
2022/06/05 05:51:47;;;;;;;6.30;5.77;;;;;;;;;;4959702;28;20207;-28
2022/06/05 05:54:14;;;;;;;8.53;7.10;;;;;;;;;;4963639;28;20289;-26
2022/06/05 05:56:45;;;;;;;7.43;6.40;;;;;;;;;;4970635;28;20277;-31
2022/06/05 05:59:13;;;;;;;12.20;6.83;;;;;;;;;;4964277;28;20294;-28
2022/06/05 06:04:15;;;;;;;9.37;8.00;;;;;;;;;;5408586;23;20784;-28
2022/06/05 06:06:44;;;;;;;11.80;8.07;;;;;;;;;;4984861;28;20227;-33
2022/06/05 06:09:11;;;;;;;9.00;7.50;;;;;;;;;;4979963;28;20202;-33
2022/06/05 06:11:38;;;;;;;10.90;6.73;;;;;;;;;;4978203;28;20231;-35
2022/06/05 06:14:07;;;;;;;10.43;6.17;;;;;;;;;;4983555;28;20202;-31
2022/06/05 06:16:35;;;;;;;7.30;5.20;;;;;;;;;;4979716;28;20244;-31
2022/06/05 06:19:02;;;;;;;6.83;4.83;;;;;;;;;;4988086;28;20211;-34
2022/06/05 06:21:30;;;;;;;7.13;4.63;;;;;;;;;;4987617;28;20210;-30
2022/06/05 06:23:57;;;;;;;8.27;4.53;;;;;;;;;;4982145;28;20206;-33
2022/06/05 06:26:24;;;;;;;7.40;4.03;;;;;;;;;;4986093;28;20240;-32
2022/06/05 06:28:51;;;;;;;8.17;4.93;;;;;;;;;;4984155;28;20226;-31
2022/06/05 06:31:19;;;;;;;7.63;4.50;;;;;;;;;;4983732;28;20231;-32
2022/06/05 06:33:48;;;;;;;6.40;4.53;;;;;;;;;;4989098;28;20228;-32
2022/06/05 06:36:16;;;;;;;9.03;5.30;;;;;;;;;;4986214;28;20236;-30
2022/06/05 06:38:43;;;;;;;5.73;4.80;;;;;;;;;;4988747;28;20221;-30
2022/06/05 06:41:11;;;;;;;6.43;5.20;;;;;;;;;;4984793;28;20714;-35
2022/06/05 06:43:39;;;;;;;5.90;5.03;;;;;;;;;;4984239;28;20214;-30
2022/06/05 06:46:06;;;;;;;7.97;4.90;;;;;;;;;;4974880;28;20229;-33
2022/06/05 06:48:35;;;;;;;5.20;4.40;;;;;;;;;;4980537;28;20228;-30
2022/06/05 06:51:02;;;;;;;6.57;4.20;;;;;;;;;;4992407;28;20652;-32
2022/06/05 06:53:32;;;;;;;6.67;3.63;;;;;;;;;;4992805;28;20304;-32
2022/06/05 06:55:59;;;;;;;4.93;3.70;;;;;;;;;;4979472;28;20225;-32
2022/06/05 06:58:26;;;;;;;2.97;2.53;;;;;;;;;;4985015;28;20570;-32
2022/06/05 07:00:53;;;;;;;8.73;3.53;;;;;;;;;;4990129;28;20202;-31
2022/06/05 07:03:20;;;;;;;3.67;3.00;;;;;;;;;;4982666;28;20225;-32
2022/06/05 07:05:49;;;;;;;3.00;2.77;;;;;;;;;;4976691;28;20231;-29
2022/06/05 07:08:16;;;;;;;1.90;1.80;;;;;;;;;;4992678;28;20885;-32
2022/06/05 07:10:43;;;;;;;2.73;2.30;;;;;;;;;;4984994;28;20217;-32
2022/06/05 07:13:10;;;;;;;2.50;2.30;;;;;;;;;;4992767;28;20205;-30
2022/06/05 07:15:37;;;;;;;3.70;2.20;;;;;;;;;;4978231;28;20208;-31
2022/06/05 07:18:05;;;;;;;2.73;1.90;;;;;;;;;;4986931;28;20206;-33
2022/06/05 07:20:34;;;;;;;2.23;2.03;;;;;;;;;;4975985;28;20206;-29
2022/06/05 07:23:02;;;;;;;2.47;1.70;;;;;;;;;;4995427;28;20212;-28
2022/06/05 07:25:30;;;;;;;1.50;1.40;;;;;;;;;;4985717;28;20210;-29
2022/06/05 07:27:57;;;;;;;1.60;1.50;;;;;;;;;;4985653;28;20225;-30
2022/06/05 07:30:24;;;;;;;1.63;1.53;;;;;;;;;;4991566;28;20213;-31
2022/06/05 07:32:51;;;;;;;1.37;1.20;;;;;;;;;;4977708;28;20209;-30
2022/06/05 07:35:19;;;;;;;1.83;1.40;;;;;;;;;;4983033;28;20207;-31
2022/06/05 07:37:46;;;;;;;2.07;1.90;;;;;;;;;;4993312;28;20227;-30
2022/06/05 07:40:15;;;;;;;3.30;1.93;;;;;;;;;;4982028;28;20206;-30
2022/06/05 07:42:43;;;;;;;2.43;2.20;;;;;;;;;;4976662;28;20209;-30
2022/06/05 07:45:13;;;;;;;2.50;2.33;;;;;;;;;;4981006;28;20211;-32
2022/06/05 07:47:41;;;;;;;2.43;2.23;;;;;;;;;;4973623;28;20293;-30
2022/06/05 07:50:08;;;;;;;2.27;2.07;;;;;;;;;;4974604;28;20212;-30
2022/06/05 07:55:21;;;;;;;2.90;2.37;;;;;;;;;;4989252;28;20210;-29
2022/06/05 07:57:49;;;;;;;2.60;2.30;;;;;;;;;;4989867;28;20205;-28
2022/06/05 08:00:16;;;;;;;3.53;1.97;;;;;;;;;;4980000;28;20293;-29
2022/06/05 08:02:43;;;;;;;2.83;2.30;;;;;;;;;;4978548;28;20211;-30
2022/06/05 08:05:11;;;;;;;3.57;2.10;;;;;;;;;;4985432;28;20415;-29
2022/06/05 08:07:38;;;;;;;2.17;1.93;;;;;;;;;;4994129;28;20223;-31
2022/06/05 08:10:06;;;;;;;3.20;1.90;;;;;;;;;;4979642;28;20202;-32
2022/06/05 08:12:36;;;;;;;1.90;1.80;;;;;;;;;;4977131;28;20256;-31
2022/06/05 08:15:04;;;;;;;1.90;1.80;;;;;;;;;;4974375;28;20205;-32
2022/06/05 08:17:32;;;;;;;1.70;1.40;;;;;;;;;;4979486;28;20257;-30
2022/06/05 08:19:59;;;;;;;1.73;1.53;;;;;;;;;;4977667;28;20287;-31
2022/06/05 08:22:27;;;;;;;2.03;1.83;;;;;;;;;;4987539;28;20211;-29
2022/06/05 08:24:54;;;;;;;2.00;1.90;;;;;;;;;;4991259;28;20206;-31
2022/06/05 08:27:24;;;;;;;3.60;2.10;;;;;;;;;;4979245;28;20230;-32
2022/06/05 08:29:55;;;;;;;4.13;2.23;;;;;;;;;;4986942;28;20233;-30
2022/06/05 08:32:23;;;;;;;3.23;2.10;;;;;;;;;;4982160;28;20898;-29
2022/06/05 08:34:50;;;;;;;2.00;1.90;;;;;;;;;;4977373;28;20205;-32
2022/06/05 08:42:59;;;;;;;2.30;2.10;;;;;;;;;;4981896;28;20207;-30
2022/06/05 08:45:30;;;;;;;1.93;1.73;;;;;;;;;;4989822;28;20210;-29
2022/06/05 08:47:58;;;;;;;2.13;2.03;;;;;;;;;;4986095;28;20221;-30
2022/06/05 08:50:29;;;;;;;2.60;2.40;;;;;;;;;;4985531;28;20205;-30
2022/06/05 08:52:58;;;;;;;2.30;2.07;;;;;;;;;;4974392;28;20214;-29
2022/06/05 08:55:29;;;;;;;5.50;2.50;;;;;;;;;;4984654;28;20206;-30
2022/06/05 08:57:58;;;;;;;3.00;1.90;;;;;;;;;;4988032;28;20198;-30
2022/06/05 09:00:28;;;;;;;2.13;2.03;;;;;;;;;;4978193;28;20206;-33
2022/06/05 09:03:00;;;;;;;2.20;2.00;;;;;;;;;;4973168;28;20218;-31
2022/06/05 09:05:30;;;;;;;2.10;1.90;;;;;;;;;;4981383;28;20214;-28
2022/06/05 09:07:58;;;;;;;2.27;2.07;;;;;;;;;;4976463;28;20211;-32
2022/06/05 09:10:33;;;;;;;2.70;2.00;;;;;;;;;;4987670;28;20487;-32
2022/06/05 09:13:01;;;;;;;4.67;2.13;;;;;;;;;;4976794;28;20545;-32
2022/06/05 09:15:30;;;;;;;3.07;2.10;;;;;;;;;;4981248;28;20207;-31
2022/06/05 09:18:00;;;;;;;3.83;2.07;;;;;;;;;;4976231;28;20206;-31
2022/06/05 09:20:32;;;;;;;2.10;2.00;;;;;;;;;;4984882;28;20303;-30
2022/06/05 09:23:02;;;;;;;4.00;2.60;;;;;;;;;;4993334;28;20218;-33
2022/06/05 09:25:39;;;;;;;3.20;2.20;;;;;;;;;;4982493;28;20207;-33
2022/06/05 09:28:22;;;;;;;2.10;2.00;;;;;;;;;;4974135;28;20274;-30
2022/06/05 09:30:52;;;;;;;3.43;1.60;;;;;;;;;;4970976;28;20200;-33
2022/06/05 09:33:22;;;;;;;1.67;1.40;;;;;;;;;;4978610;28;20538;-30
2022/06/05 09:35:51;;;;;;;1.50;1.40;;;;;;;;;;4978362;28;20264;-30
2022/06/05 09:38:22;;;;;;;1.40;1.30;;;;;;;;;;4973880;28;20196;-31
2022/06/05 09:40:54;;;;;;;1.20;1.10;;;;;;;;;;4987213;28;20211;-29
2022/06/05 09:43:25;;;;;;;1.50;1.37;;;;;;;;;;4980150;28;20211;-32
2022/06/05 09:46:08;;;;;;;2.43;1.70;;;;;;;;;;4978489;28;20230;-32
2022/06/05 09:48:40;;;;;;;1.67;1.10;;;;;;;;;;4986494;28;20215;-30
2022/06/05 09:51:09;;;;;;;1.73;1.40;;;;;;;;;;4979773;28;20595;-31
2022/06/05 09:53:44;;;;;;;2.10;1.40;;;;;;;;;;4984642;28;20308;-32
2022/06/05 09:56:17;;;;;;;1.03;1.00;;;;;;;;;;4987862;28;20227;-30
2022/06/05 09:58:51;;;;;;;4.07;1.17;;;;;;;;;;4992326;28;20262;-31
2022/06/05 10:01:22;;;;;;;1.67;0.93;;;;;;;;;;4977721;28;20685;-31
2022/06/05 10:03:51;;;;;;;3.00;1.20;;;;;;;;;;4981619;28;20219;-33
2022/06/05 10:06:25;;;;;;;1.27;1.13;;;;;;;;;;4982464;28;20223;-31
2022/06/05 10:08:55;;;;;;;1.10;1.00;;;;;;;;;;4974611;28;20241;-29
2022/06/05 10:11:24;;;;;;;2.40;1.17;;;;;;;;;;4988360;28;20210;-27
2022/06/05 10:13:57;;;;;;;1.47;1.10;;;;;;;;;;4985677;28;20204;-29
2022/06/05 10:16:27;;;;;;;1.67;0.73;;;;;;;;;;4989689;28;20237;-31
2022/06/05 10:18:59;;;;;;;2.40;1.00;;;;;;;;;;4989655;28;20210;-33
2022/06/05 10:21:33;;;;;;;2.07;0.97;;;;;;;;;;4976466;28;20210;-30
2022/06/05 10:24:09;;;;;;;1.83;1.10;;;;;;;;;;4976983;28;20198;-30
2022/06/05 10:26:38;;;;;;;3.77;0.90;;;;;;;;;;4978325;28;20234;-32
2022/06/05 10:29:10;;;;;;;1.90;1.03;;;;;;;;;;4990152;28;20230;-30
2022/06/05 10:31:38;;;;;;;1.53;1.07;;;;;;;;;;4977131;28;20237;-30
2022/06/05 10:34:11;;;;;;;1.10;0.93;;;;;;;;;;4983529;28;20213;-33
2022/06/05 10:36:53;;;;;;;1.77;1.10;;;;;;;;;;4988993;28;20229;-30
2022/06/05 10:39:24;;;;;;;1.83;0.93;;;;;;;;;;4993951;28;20211;-32
2022/06/05 10:42:06;;;;;;;1.87;1.10;;;;;;;;;;4991950;28;20207;-30
2022/06/05 10:44:37;;;;;;;2.20;1.10;;;;;;;;;;4988918;28;20544;-29
2022/06/05 10:47:07;;;;;;;2.10;1.20;;;;;;;;;;4988017;28;20272;-30
2022/06/05 10:49:41;;;;;;;1.57;0.90;;;;;;;;;;4986176;28;20235;-29
2022/06/05 10:52:16;;;;;;;3.17;1.33;;;;;;;;;;4976621;28;20264;-30
2022/06/05 10:54:47;;;;;;;2.03;1.27;;;;;;;;;;4976358;28;20213;-29
2022/06/05 10:57:16;;;;;;;3.30;1.30;;;;;;;;;;4983005;28;20289;-29
2022/06/05 10:59:51;;;;;;;3.33;1.50;;;;;;;;;;4985401;28;20203;-28
2022/06/05 11:02:30;;;;;;;1.63;1.10;;;;;;;;;;4991137;28;20555;-34
2022/06/05 11:05:01;;;;;;;3.10;1.37;;;;;;;;;;4987188;28;20241;-30
2022/06/05 11:07:47;;;;;;;3.23;1.50;;;;;;;;;;4986328;28;20238;-29
2022/06/05 11:10:18;;;;;;;2.13;1.30;;;;;;;;;;4992188;28;20284;-27
2022/06/05 11:15:39;;;;;;;1.33;1.20;;;;;;;;;;4982352;28;20214;-31
2022/06/05 11:18:38;;;;;;;2.60;1.50;;;;;;;;;;4988902;28;20207;-30
2022/06/05 11:21:07;;;;;;;1.90;1.70;;;;;;;;;;4982630;28;20199;-31
2022/06/05 11:23:35;;;;;;;1.60;1.50;;;;;;;;;;4975975;28;20237;-34
2022/06/05 11:26:07;;;;;;;2.40;1.60;;;;;;;;;;4978159;28;20236;-31
2022/06/05 11:28:47;;;;;;;4.17;1.30;;;;;;;;;;4976763;28;20206;-32
2022/06/05 11:31:18;;;;;;;1.87;1.40;;;;;;;;;;4989455;28;20213;-28
2022/06/05 11:33:52;;;;;;;8.73;1.90;;;;;;;;;;4989538;28;20209;-27
2022/06/05 11:36:24;;;;;;;3.13;1.57;;;;;;;;;;4989905;28;20318;-28
2022/06/05 11:38:59;;;;;;;2.13;1.70;;;;;;;;;;4991610;28;20202;-33
2022/06/05 11:41:28;;;;;;;4.10;1.63;;;;;;;;;;4985418;28;20209;-33
2022/06/05 11:44:09;;;;;;;5.40;1.97;;;;;;;;;;4994984;28;20214;-31
2022/06/05 11:46:39;;;;;;;7.10;1.83;;;;;;;;;;4988390;28;20268;-29
2022/06/05 11:49:11;;;;;;;2.83;1.57;;;;;;;;;;4986857;28;20221;-32
2022/06/05 11:51:46;;;;;;;2.67;1.30;;;;;;;;;;4979298;28;20194;-28
2022/06/05 11:54:17;;;;;;;2.70;1.50;;;;;;;;;;4991543;28;20202;-30
2022/06/05 11:56:55;;;;;;;1.57;1.30;;;;;;;;;;4983855;28;20225;-27
2022/06/05 11:59:26;;;;;;;1.27;1.17;;;;;;;;;;4974807;28;20198;-31
2022/06/05 12:01:55;;;;;;;1.53;1.07;;;;;;;;;;4978351;28;20210;-29
2022/06/05 12:04:29;;;;;;;3.33;1.50;;;;;;;;;;5078919;23;20699;-28
2022/06/05 12:06:59;;;;;;;2.57;1.03;;;;;;;;;;4983910;28;20316;-30
2022/06/05 12:09:29;;;;;;;2.47;1.50;;;;;;;;;;4991918;28;20229;-27
2022/06/05 12:12:00;;;;;;;1.60;1.20;;;;;;;;;;4982528;28;20200;-28
2022/06/05 12:14:29;;;;;;;2.33;1.27;;;;;;;;;;4983184;28;20216;-28
2022/06/05 12:17:04;;;;;;;6.97;1.60;;;;;;;;;;4975505;28;20229;-28
2022/06/05 12:19:39;;;;;;;1.33;1.27;;;;;;;;;;4980276;28;20201;-26
2022/06/05 12:22:15;;;;;;;4.93;2.17;;;;;;;;;;4993501;28;20207;-27
2022/06/05 12:24:45;;;;;;;3.40;1.47;;;;;;;;;;4991674;28;20216;-28
2022/06/05 12:27:15;;;;;;;1.50;1.40;;;;;;;;;;4992056;28;20244;-27
2022/06/05 12:29:45;;;;;;;2.70;1.80;;;;;;;;;;4980227;28;20234;-28
2022/06/05 12:32:15;;;;;;;1.60;1.50;;;;;;;;;;4979951;28;20213;-27
2022/06/05 12:34:46;;;;;;;3.90;1.57;;;;;;;;;;4989479;28;20212;-29
2022/06/05 12:37:19;;;;;;;2.67;1.60;;;;;;;;;;4971284;28;20230;-28
2022/06/05 12:39:47;;;;;;;1.27;1.20;;;;;;;;;;4989338;28;20224;-26
2022/06/05 12:42:23;;;;;;;2.93;1.53;;;;;;;;;;4991394;28;20233;-30
2022/06/05 12:44:51;;;;;;;2.30;1.47;;;;;;;;;;4992746;28;20209;-27
2022/06/05 12:47:27;;;;;;;1.40;1.30;;;;;;;;;;4975392;28;20233;-28
2022/06/05 12:50:02;;;;;;;4.87;1.60;;;;;;;;;;4980769;28;20225;-26
2022/06/05 12:52:32;;;;;;;2.70;1.33;;;;;;;;;;4975238;28;20217;-31
2022/06/05 12:55:03;;;;;;;3.37;1.60;;;;;;;;;;4978857;28;20207;-28
2022/06/05 12:57:32;;;;;;;3.13;1.60;;;;;;;;;;4983004;28;20230;-28
2022/06/05 13:00:03;;;;;;;2.27;1.37;;;;;;;;;;4984704;28;20471;-26
2022/06/05 13:02:34;;;;;;;1.57;1.47;;;;;;;;;;4978829;28;20247;-26
2022/06/05 13:05:04;;;;;;;1.77;1.33;;;;;;;;;;4978060;28;20216;-27
2022/06/05 13:07:38;;;;;;;4.00;1.30;;;;;;;;;;4971548;28;20258;-29
2022/06/05 13:10:15;;;;;;;3.27;1.50;;;;;;;;;;4989527;28;20223;-31
2022/06/05 13:12:47;;;;;;;4.20;1.63;;;;;;;;;;4973393;28;20210;-30
2022/06/05 13:15:20;;;;;;;4.07;1.30;;;;;;;;;;4976905;28;20210;-29
2022/06/05 13:17:51;;;;;;;1.73;1.40;;;;;;;;;;4983013;28;20215;-27
2022/06/05 13:20:20;;;;;;;5.60;1.37;;;;;;;;;;4990865;28;20225;-30
2022/06/05 13:22:51;;;;;;;2.87;2.07;;;;;;;;;;4982421;28;20207;-29
2022/06/05 13:25:20;;;;;;;1.93;1.10;;;;;;;;;;4989252;28;20206;-31
2022/06/05 13:27:58;;;;;;;1.57;1.23;;;;;;;;;;4979024;28;20701;-25
2022/06/05 13:30:27;;;;;;;1.97;1.30;;;;;;;;;;4990466;28;20298;-29
2022/06/05 13:32:56;;;;;;;1.30;1.20;;;;;;;;;;4983950;28;20206;-27
2022/06/05 13:35:41;;;;;;;1.77;1.30;;;;;;;;;;4970696;28;20215;-28
2022/06/05 13:38:14;;;;;;;2.13;1.30;;;;;;;;;;4978151;28;20672;-31
2022/06/05 13:40:44;;;;;;;2.17;1.33;;;;;;;;;;4984436;28;20207;-31
2022/06/05 13:43:16;;;;;;;1.60;1.40;;;;;;;;;;4978263;28;20204;-28
2022/06/05 13:45:48;;;;;;;2.67;1.60;;;;;;;;;;4987318;28;20250;-27
2022/06/05 13:48:16;;;;;;;7.83;1.73;;;;;;;;;;4984889;28;20211;-30
2022/06/05 13:50:50;;;;;;;1.60;1.20;;;;;;;;;;4980289;28;20260;-29
2022/06/05 13:53:20;;;;;;;2.93;1.40;;;;;;;;;;4971041;28;20211;-28
2022/06/05 13:56:05;;;;;;;2.13;1.63;;;;;;;;;;4976816;28;20600;-30
2022/06/05 13:58:36;;;;;;;4.23;1.60;;;;;;;;;;4974288;28;20207;-28
2022/06/05 14:01:07;;;;;;;3.43;1.50;;;;;;;;;;4974340;28;20508;-26
2022/06/05 14:03:36;;;;;;;2.10;1.40;;;;;;;;;;4981153;28;20668;-28
2022/06/05 14:06:06;;;;;;;1.37;1.27;;;;;;;;;;4974682;28;20227;-27
2022/06/05 14:08:46;;;;;;;3.53;1.40;;;;;;;;;;4975612;28;20291;-28
2022/06/05 14:11:13;;;;;;;5.17;2.27;;;;;;;;;;4984897;28;20230;-30
2022/06/05 14:13:41;;;;;;;3.13;2.23;;;;;;;;;;4995438;28;20201;-30
2022/06/05 14:16:09;;;;;;;3.73;1.30;;;;;;;;;;4991100;28;20669;-27
2022/06/05 14:18:40;;;;;;;3.33;1.60;;;;;;;;;;4975135;28;20219;-27
2022/06/05 14:21:08;;;;;;;2.07;1.67;;;;;;;;;;4979356;28;20217;-27
2022/06/05 14:23:36;;;;;;;3.97;1.50;;;;;;;;;;4993481;28;20207;-30
2022/06/05 14:26:05;;;;;;;2.13;1.37;;;;;;;;;;4988947;28;20235;-30
2022/06/05 14:28:37;;;;;;;2.57;1.33;;;;;;;;;;4974374;28;20212;-26
2022/06/05 14:31:09;;;;;;;1.47;1.10;;;;;;;;;;4983869;28;20230;-29
2022/06/05 14:33:39;;;;;;;2.90;1.30;;;;;;;;;;4974080;28;20212;-29
2022/06/05 14:36:07;;;;;;;2.10;1.10;;;;;;;;;;4993503;28;20226;-30
2022/06/05 14:38:38;;;;;;;1.60;1.50;;;;;;;;;;4993166;28;20210;-27
2022/06/05 14:41:12;;;;;;;6.17;1.37;;;;;;;;;;4980276;28;20201;-30
2022/06/05 14:43:43;;;;;;;1.63;1.13;;;;;;;;;;4982826;28;20229;-29
2022/06/05 14:46:22;;;;;;;2.23;1.00;;;;;;;;;;4988141;28;20234;-27
2022/06/05 14:48:51;;;;;;;1.90;1.10;;;;;;;;;;4978772;28;20422;-28
2022/06/05 14:51:22;;;;;;;3.33;1.07;;;;;;;;;;4979285;28;20227;-29
2022/06/05 14:53:53;;;;;;;3.50;1.50;;;;;;;;;;4974844;28;20611;-26
2022/06/05 14:59:15;;;;;;;1.50;1.40;;;;;;;;;;4984374;28;20206;-27
2022/06/05 15:01:44;;;;;;;1.90;1.30;;;;;;;;;;4985097;28;20214;-28
2022/06/05 15:04:14;;;;;;;1.97;1.30;;;;;;;;;;4981608;28;20306;-29
2022/06/05 15:06:43;;;;;;;2.83;1.30;;;;;;;;;;4984497;28;20227;-26
2022/06/05 15:09:14;;;;;;;2.17;1.47;;;;;;;;;;4993385;28;20211;-29
2022/06/05 15:11:46;;;;;;;1.70;1.20;;;;;;;;;;4973702;28;20231;-29
2022/06/05 15:14:16;;;;;;;1.20;1.10;;;;;;;;;;4985602;28;20266;-29
2022/06/05 15:16:46;;;;;;;3.33;1.20;;;;;;;;;;4980589;28;20230;-29
2022/06/05 15:19:18;;;;;;;2.80;1.33;;;;;;;;;;4978845;28;20300;-27
2022/06/05 15:21:49;;;;;;;3.07;1.57;;;;;;;;;;4984714;28;20297;-30